KMBL/MBL METAR and TAF weather

Enter ICAO airport designator
Station Type Date Time Source
KMBL METAR 2019/04/24 15:56 UTC NOAA

KMBL 241556Z AUTO 24007KT 10SM CLR 12/01 A3000 RMK AO2 SLP185 T01220011


Station Type Date Time Source
KMBL Decoded METAR 2019/04/24 15:56 UTC NOAA

Manistee, Manistee County-Blacker Airport, MI, United States (KMBL) 44-16N 086-15W
Apr 24, 2019 - 11:56 AM EDT / 2019.04.24 1556 UTC
Wind: from the WSW (240 degrees) at 8 MPH (7 KT):0
Visibility: 10 mile(s):0
Sky conditions: clear
Temperature: 54.0 F (12.2 C)
Dew Point: 34.0 F (1.1 C)
Relative Humidity: 46%
Pressure (altimeter): 30 in. Hg (1015 hPa)
ob: KMBL 241556Z AUTO 24007KT 10SM CLR 12/01 A3000 RMK AO2 SLP185 T01220011
cycle: 16

Station Type Date Time Source
KMBL TAF 2019/04/24 12:21 UTC NOAA

TAF KMBL 241120Z 2412/2512 VRB03KT P6SM SKC
FM241500 19005KT P6SM SKC
FM241700 23006KT P6SM FEW250
FM242300 20007KT P6SM FEW250

Example: see airport list